METAR AND TAF INFORMATION
METAR FOR GOBD
ADDS - METARS form results

(1303 UTC 21 April 2019)
Data provider http://aviationweather.gov/metar/data/
 
METAR text: GOBD 211300Z 36014KT CAVOK 28/14 Q1012 NOSIG
Conditions at: GOBD (DAKAR/DIAGNE , SN) observed 1300 UTC 21 April 2019
Temperature: 28.0°C (82°F)
Dewpoint: 14.0°C (57°F) [RH = 42%]
Pressure (altimeter): 29.88 inches Hg (1012.0 mb)
Winds: from the N (360 degrees) at 16 MPH (14 knots; 7.2 m/s)
Visibility: 6 or more miles (10+ km)
Ceiling: ceiling and visibility are OK
Clouds: unknown
Weather: no significant weather observed at this time

METAR text: GOBD 211230Z 35014KT CAVOK 27/13 Q1012 NOSIG
Conditions at: GOBD (DAKAR/DIAGNE , SN) observed 1230 UTC 21 April 2019
Temperature: 27.0°C (81°F)
Dewpoint: 13.0°C (55°F) [RH = 42%]
Pressure (altimeter): 29.88 inches Hg (1012.0 mb)
Winds: from the N (350 degrees) at 16 MPH (14 knots; 7.2 m/s)
Visibility: 6 or more miles (10+ km)
Ceiling: ceiling and visibility are OK
Clouds: unknown
Weather: no significant weather observed at this time

Forecast for: GOBD (DAKAR/DIAGNE , SN)
Text: TAF GOBD 211130Z 2112/2218 36013KT CAVOK
Forecast period: 1200 UTC 21 April 2019 to 1800 UTC 22 April 2019
Forecast type: FROM: standard forecast or significant change
Winds: from the N (360 degrees) at 15 MPH (13 knots; 6.7 m/s)
Visibility: 6 or more miles 10+ km)
Ceiling: unknown
Clouds: missing
Weather: NSW  (no significant weather)

 AIRPORT MAP

 RUNWAY INFORMATION

 AIRPORT FREQUENCIES

 AIRPORT NEAR NAVIGATION AIDS



Powered by Virtual Airlines Manager [v2.6.2]